Terminal Aerodrome Forecast
Issued by NWS

Home | Current Version | Previous Version | Text Only | Print | Product List | Glossary On
Versions: 1 2 3 4 5 6 7 8 9 10 11 12 13 14 15
784
FTPA31 PHFO 040208 AAA
TAFHJR
TAF AMD
PHJR 040208Z 0402/0424 20009KT P6SM VCSH SCT025 BKN040
      TEMPO 0402/0404 BKN025 BKN040
     FM040500 VRB03KT P6SM VCSH SCT025 SCT045
     FM042000 18009KT P6SM VCSH SCT025 BKN045=

USA.gov is the U.S. government's official web portal to all federal, state and local government web resources and services.